Latest Weather Observations for Trangie

IDN60801

Issued at 10:22 am EDT Sunday 17 February 2019 (issued every 10 minutes, with the page automatically refreshed every 10 minutes)

About weather observations | Map of weather stations | Latest weather observations for NSW | Other Formats
Station Details ID: 051049 Name: TRANGIE RESEARCH STATION AWS Lat: -31.99 Lon: 147.95 Height: 215.0 m
Data from the previous 72 hours. | See also: Recent months at Trangie
Date/Time
EDT
Temp
°C
App
Temp
°C
Dew
Point
°C
Rel
Hum
%
Delta-T
°C
Wind Press
QNH
hPa
Press
MSL
hPa
Rain since
9am
mm
Dir  Spd
km/h
Gust
km/h
Spd
kts
Gust
kts
17/10:00am 27.6 25.0 12.0 38 9.1 N 17 24 9 13 1015.1 1013.9 0.0
17/09:30am 26.5 23.8 11.8 40 8.5 NNE 17 26 9 14 1015.2 1014.0 0.0
17/09:00am 25.5 23.3 12.0 43 7.8 NNE 15 20 8 11 1015.2 1014.0 0.0
17/08:30am 24.5 23.2 12.5 47 7.0 ENE 11 19 6 10 1015.1 1013.9 0.0
17/08:00am 22.5 21.7 13.0 55 5.5 E 9 17 5 9 1015.0 1013.8 0.0
17/07:30am 20.7 20.0 13.2 62 4.3 ENE 9 15 5 8 1014.6 1013.4 0.0
17/07:00am 19.6 18.7 12.6 64 4.0 E 9 13 5 7 1014.0 1012.8 0.0
17/06:30am 19.5 18.5 12.3 63 4.1 E 9 15 5 8 1013.6 1012.4 0.0
17/06:00am 19.5 18.6 12.5 64 4.0 ESE 9 13 5 7 1013.3 1012.1 0.0
17/05:30am 18.4 17.5 11.2 63 4.0 ESE 7 9 4 5 1013.1 1012.0 0.0
17/05:00am 18.5 17.4 10.6 60 4.3 SE 7 9 4 5 1013.0 1011.8 0.0
17/04:30am 19.2 18.2 10.2 56 4.9 ESE 6 11 3 6 1013.0 1011.8 0.0
17/04:00am 20.2 18.9 10.0 52 5.5 ESE 7 13 4 7 1012.8 1011.6 0.0
17/03:30am 20.6 19.3 10.1 51 5.7 ESE 7 9 4 5 1013.1 1012.0 0.0
17/03:00am 20.7 19.4 9.3 48 6.1 ESE 6 7 3 4 1013.3 1012.1 0.0
17/02:30am 21.8 20.4 9.0 44 6.9 ESE 6 9 3 5 1013.5 1012.3 0.0
17/02:00am 21.5 19.8 8.4 43 7.0 E 7 11 4 6 1013.7 1012.5 0.0
17/01:30am 22.0 20.5 8.5 42 7.2 ESE 6 9 3 5 1014.0 1012.8 0.0
17/01:00am 22.1 20.7 8.9 43 7.1 ESE 6 9 3 5 1014.2 1013.0 0.0
17/12:30am 22.1 21.1 8.9 43 7.1 SE 4 7 2 4 1014.3 1013.1 0.0
17/12:00am 22.6 21.2 8.7 41 7.5 SE 6 9 3 5 1014.4 1013.2 0.0
 
Date/Time
EDT
Temp
°C
App
Temp
°C
Dew
Point
°C
Rel
Hum
%
Delta-T
°C
Wind Press
QNH
hPa
Press
MSL
hPa
Rain since
9am
mm
Dir  Spd
km/h
Gust
km/h
Spd
kts
Gust
kts
16/11:30pm 23.1 22.5 8.8 40 7.7 SE 2 7 1 4 1014.6 1013.4 0.0
16/11:00pm 24.3 22.9 8.7 37 8.5 ESE 6 11 3 6 1014.8 1013.6 0.0
16/10:30pm 24.2 22.6 8.6 37 8.4 SE 7 9 4 5 1014.9 1013.7 0.0
16/10:00pm 24.9 23.2 8.4 35 8.9 SE 7 11 4 6 1014.8 1013.6 0.0
16/09:30pm 25.6 24.4 8.1 33 9.5 SE 4 9 2 5 1014.6 1013.4 0.0
16/09:00pm 26.3 25.8 7.8 31 10.0 CALM 0 6 0 3 1014.4 1013.2 0.0
16/08:30pm 27.4 26.5 7.8 29 10.6 SE 2 7 1 4 1014.3 1013.1 0.0
16/08:00pm 29.0 27.1 7.6 26 11.7 ESE 7 9 4 5 1014.1 1012.9 0.0
16/07:30pm 30.5 29.8 7.0 23 12.8 CALM 0 0 0 0 1014.0 1012.8 0.0
16/07:00pm 31.5 30.7 6.5 21 13.6 CALM 0 0 0 0 1013.8 1012.6 0.0
16/06:30pm 31.7 29.2 6.7 21 13.6 NNE 9 13 5 7 1014.0 1012.8 0.0
16/06:00pm 32.5 29.9 5.9 19 14.4 N 9 13 5 7 1014.1 1012.9 0.0
16/05:30pm 33.1 30.6 6.4 19 14.6 NE 9 15 5 8 1014.3 1013.1 0.0
16/05:00pm 32.8 31.5 7.6 21 14.0 NNE 4 11 2 6 1014.5 1013.3 0.0
16/04:30pm 33.3 31.5 8.0 21 14.2 NW 7 11 4 6 1014.8 1013.6 0.0
16/04:00pm 31.9 29.8 8.2 23 13.2 ENE 9 13 5 7 1015.2 1014.0 0.0
16/03:30pm 31.7 29.9 8.0 23 13.2 NW 7 13 4 7 1015.7 1014.5 0.0
16/03:00pm 31.9 29.4 8.2 23 13.2 N 11 20 6 11 1016.3 1015.1 0.0
16/02:30pm 31.1 28.6 8.2 24 12.8 N 11 24 6 13 1016.8 1015.6 0.0
16/02:00pm 30.1 27.1 9.1 27 11.8 N 15 24 8 13 1017.2 1016.0 0.0
16/01:30pm 30.2 27.7 9.7 28 11.6 NNW 13 22 7 12 1017.6 1016.5 0.0
16/01:00pm 29.8 27.6 9.3 28 11.5 N 11 20 6 11 1018.0 1016.9 0.0
16/12:30pm 28.3 24.8 8.6 29 10.9 N 17 22 9 12 1018.8 1017.6 0.0
16/12:00pm 27.7 24.6 9.0 31 10.4 N 15 20 8 11 1019.4 1018.2 0.0
16/11:30am 26.9 23.9 9.3 33 9.8 NNE 15 24 8 13 1019.8 1018.6 0.0
16/11:00am 26.8 24.0 10.1 35 9.4 NE 15 22 8 12 1020.1 1018.9 0.0
16/10:30am 25.8 23.4 10.0 37 8.8 NE 13 20 7 11 1020.2 1019.0 0.0
16/10:00am 24.3 21.4 10.9 43 7.5 ENE 17 26 9 14 1020.2 1019.0 0.0
16/09:30am 23.2 19.8 11.3 47 6.7 ENE 20 30 11 16 1020.4 1019.2 0.0
16/09:00am 22.4 19.6 11.5 50 6.1 ENE 17 26 9 14 1020.4 1019.2 0.0
16/08:30am 21.1 17.8 11.7 55 5.3 E 20 30 11 16 1020.2 1019.0 0.0
16/08:00am 20.2 17.9 11.7 58 4.7 E 15 24 8 13 1020.1 1018.9 0.0
16/07:30am 19.3 17.4 11.8 62 4.2 E 13 20 7 11 1019.8 1018.6 0.0
16/07:00am 18.7 17.1 11.5 63 4.0 E 11 20 6 11 1019.5 1018.3 0.0
16/06:30am 18.8 16.4 11.4 62 4.1 E 15 24 8 13 1018.9 1017.7 0.0
16/06:00am 19.0 16.2 11.3 61 4.2 E 17 28 9 15 1018.5 1017.3 0.0
16/05:30am 19.4 16.3 11.7 61 4.3 ENE 19 32 10 17 1018.3 1017.1 0.0
16/05:00am 19.5 16.4 11.5 60 4.4 E 19 35 10 19 1018.0 1016.9 0.0
16/04:30am 19.9 16.6 11.7 59 4.6 E 20 33 11 18 1017.8 1016.7 0.0
16/04:00am 20.2 16.9 11.7 58 4.8 E 20 33 11 18 1017.9 1016.8 0.0
16/03:30am 20.6 16.9 11.5 56 5.1 E 22 35 12 19 1017.9 1016.8 0.0
16/03:00am 21.0 17.7 11.6 55 5.3 E 20 32 11 17 1018.0 1016.9 0.0
16/02:30am 21.4 17.7 11.4 53 5.6 E 22 35 12 19 1018.0 1016.9 0.0
16/02:00am 21.9 19.1 11.3 51 5.9 E 17 32 9 17 1018.2 1017.0 0.0
16/01:30am 22.7 19.3 11.4 49 6.4 E 20 33 11 18 1018.6 1017.4 0.0
16/01:00am 23.2 19.9 10.9 46 6.9 E 19 28 10 15 1018.9 1017.7 0.0
16/12:30am 23.9 20.8 10.2 42 7.6 E 17 26 9 14 1018.9 1017.7 0.0
16/12:00am 24.7 21.6 9.0 37 8.6 E 15 26 8 14 1018.8 1017.6 0.0
 
Date/Time
EDT
Temp
°C
App
Temp
°C
Dew
Point
°C
Rel
Hum
%
Delta-T
°C
Wind Press
QNH
hPa
Press
MSL
hPa
Rain since
9am
mm
Dir  Spd
km/h
Gust
km/h
Spd
kts
Gust
kts
15/11:30pm 25.6 22.4 8.6 34 9.3 E 15 30 8 16 1018.7 1017.5 0.0
15/11:00pm 26.4 22.6 7.4 30 10.2 E 17 26 9 14 1018.8 1017.6 0.0
15/10:30pm 26.8 23.4 5.7 26 11.0 E 13 20 7 11 1018.6 1017.4 0.0
15/10:00pm 27.1 23.6 3.6 22 11.8 E 11 15 6 8 1018.3 1017.1 0.0
15/09:30pm 27.0 23.8 2.8 21 12.0 ESE 9 13 5 7 1017.9 1016.8 0.0
15/09:00pm 26.5 23.6 2.4 21 11.8 ESE 7 13 4 7 1017.6 1016.5 0.0
15/08:30pm 27.0 23.9 1.4 19 12.4 SE 7 13 4 7 1017.2 1016.0 0.0
15/08:00pm 29.0 25.4 0.7 16 13.7 SE 9 13 5 7 1016.9 1015.7 0.0
15/07:30pm 31.2 27.2 0.6 14 15.0 SE 11 24 6 13 1016.7 1015.5 0.0
15/07:00pm 32.1 27.7 0.2 13 15.6 E 13 20 7 11 1016.4 1015.2 0.0
15/06:30pm 32.7 28.4 0.7 13 15.9 ESE 13 24 7 13 1016.3 1015.1 0.0
15/06:00pm 32.6 27.9 0.6 13 15.8 ESE 15 22 8 12 1016.5 1015.3 0.0
15/05:30pm 33.0 28.1 -0.2 12 16.3 SE 15 24 8 13 1016.6 1015.4 0.0
15/05:00pm 32.6 27.5 0.6 13 15.8 ESE 17 26 9 14 1016.7 1015.5 0.0
15/04:30pm 32.5 27.8 0.6 13 15.8 SE 15 22 8 12 1016.9 1015.7 0.0
15/04:00pm 33.0 29.2 2.0 14 15.7 SE 11 20 6 11 1017.3 1016.2 0.0
15/03:30pm 32.2 28.1 2.3 15 15.2 SE 13 22 7 12 1017.8 1016.7 0.0
15/03:00pm 31.8 28.0 3.8 17 14.5 ESE 13 22 7 12 1018.5 1017.3 0.0
15/02:30pm 31.4 28.0 4.2 18 14.2 ESE 11 17 6 9 1019.1 1017.9 0.0
15/02:00pm 30.8 28.3 4.5 19 13.7 ENE 7 15 4 8 1019.4 1018.2 0.0
15/01:30pm 30.7 27.8 6.6 22 13.1 ENE 11 17 6 9 1019.8 1018.6 0.0
15/01:00pm 29.8 26.8 7.7 25 12.1 E 13 20 7 11 1020.2 1019.0 0.0
15/12:30pm 28.8 25.8 7.9 27 11.5 ENE 13 19 7 10 1020.7 1019.5 0.0
15/12:00pm 28.0 25.0 9.3 31 10.4 E 15 24 8 13 1021.1 1019.9 0.0
15/11:30am 26.7 23.3 9.1 33 9.7 ENE 17 28 9 15 1021.6 1020.5 0.0
15/11:00am 26.3 23.1 10.0 36 9.1 E 17 28 9 15 1021.9 1020.8 0.0
15/10:30am 25.1 21.7 11.3 42 7.9 E 20 32 11 17 1021.9 1020.8 0.0
15/10:00am 23.8 20.0 11.2 45 7.1 E 22 37 12 20 1021.8 1020.7 0.0
15/09:30am 23.0 19.2 11.1 47 6.7 E 22 35 12 19 1021.8 1020.7 0.0
15/09:00am 21.9 18.2 11.6 52 5.8 E 22 37 12 20 1021.6 1020.5 0.0
15/08:30am 21.3 18.4 12.2 56 5.2 E 19 32 10 17 1021.3 1020.1 0.0
15/08:00am 20.1 17.4 11.8 59 4.6 E 17 24 9 13 1021.0 1019.8 0.0
15/07:30am 19.4 17.1 11.7 61 4.3 E 15 24 8 13 1020.6 1019.4 0.0
15/07:00am 18.9 16.9 11.5 62 4.1 E 13 20 7 11 1020.3 1019.1 0.0
15/06:30am 19.2 16.4 11.5 61 4.3 E 17 24 9 13 1019.7 1018.5 0.0
15/06:00am 19.4 17.0 11.4 60 4.4 E 15 24 8 13 1019.5 1018.3 0.0
15/05:30am 19.6 17.3 11.6 60 4.5 E 15 22 8 12 1019.2 1018.0 0.0
15/05:00am 19.8 17.4 11.3 58 4.7 E 15 22 8 12 1019.0 1017.8 0.0
15/04:30am 20.2 17.7 11.1 56 5.0 E 15 22 8 12 1019.0 1017.8 0.0
15/04:00am 20.7 17.9 11.3 55 5.2 E 17 30 9 16 1018.9 1017.7 0.0
15/03:30am 20.8 19.1 11.2 54 5.3 E 11 17 6 9 1018.7 1017.5 0.0
15/03:00am 21.4 19.3 11.1 52 5.7 E 13 22 7 12 1018.4 1017.2 0.0
15/02:30am 21.5 20.1 10.9 51 5.9 ESE 9 15 5 8 1018.4 1017.2 0.0
15/02:00am 22.1 20.3 10.9 49 6.2 ESE 11 20 6 11 1018.4 1017.2 0.0
15/01:30am 22.1 21.0 10.6 48 6.4 ESE 7 13 4 7 1018.4 1017.2 0.0
15/01:00am 23.1 21.3 10.9 46 6.8 ESE 11 20 6 11 1018.2 1017.0 0.0
15/12:30am 22.4 20.6 7.8 39 7.7 ESE 7 13 4 7 1018.0 1016.9 0.0
15/12:00am 23.8 20.8 6.1 32 9.1 SSE 11 20 6 11 1018.0 1016.9 0.0
 
Date/Time
EDT
Temp
°C
App
Temp
°C
Dew
Point
°C
Rel
Hum
%
Delta-T
°C
Wind Press
QNH
hPa
Press
MSL
hPa
Rain since
9am
mm
Dir  Spd
km/h
Gust
km/h
Spd
kts
Gust
kts
14/11:30pm 24.1 21.0 5.5 30 9.5 SSE 11 19 6 10 1017.9 1016.8 0.0
14/11:00pm 25.4 21.9 5.6 28 10.2 SSE 13 20 7 11 1017.6 1016.5 0.0
14/10:30pm 26.0 22.2 5.6 27 10.6 SSE 15 22 8 12 1017.2 1016.0 0.0
14/10:00pm 26.6 22.5 6.1 27 10.7 S 17 26 9 14 1017.1 1015.9 0.0
14/09:30pm 27.0 24.5 8.4 31 10.2 S 11 17 6 9 1016.7 1015.5 0.0
14/09:00pm 27.8 25.5 9.1 31 10.4 SSE 11 17 6 9 1016.2 1015.0 0.0
14/08:30pm 26.9 25.6 9.3 33 9.8 SSE 6 9 3 5 1015.8 1014.6 0.0
14/08:00pm 28.4 27.0 9.6 31 10.6 SE 7 15 4 8 1015.5 1014.3 0.0
14/07:30pm 29.6 27.7 9.2 28 11.5 SSE 9 17 5 9 1015.2 1014.0 0.0
14/07:00pm 30.2 27.9 9.1 27 11.9 SSE 11 17 6 9 1014.9 1013.7 0.0
14/06:30pm 30.8 28.8 10.2 28 11.8 SSE 11 20 6 11 1014.6 1013.4 0.0
14/06:00pm 30.9 28.4 9.7 27 12.1 SSE 13 19 7 10 1014.6 1013.4 0.0
14/05:30pm 30.9 28.9 10.3 28 11.9 SSE 11 20 6 11 1014.7 1013.5 0.0
14/05:00pm 30.7 28.3 10.1 28 11.8 SSE 13 22 7 12 1014.6 1013.4 0.0
14/04:30pm 30.7 28.3 10.1 28 11.8 SSE 13 24 7 13 1014.7 1013.5 0.0
14/04:00pm 31.0 28.3 10.4 28 11.9 SSW 15 22 8 12 1014.7 1013.5 0.0
14/03:30pm 31.5 29.4 11.3 29 11.8 E 13 20 7 11 1015.0 1013.8 0.0
14/03:00pm 29.3 27.1 10.9 32 10.6 SE 13 19 7 10 1015.3 1014.1 0.0
14/02:30pm 29.6 27.1 11.2 32 10.7 E 15 20 8 11 1015.6 1014.4 0.0
14/02:00pm 30.2 28.3 11.7 32 10.8 SE 13 22 7 12 1015.8 1014.6 0.0
14/01:30pm 29.2 26.9 11.7 34 10.2 SE 15 28 8 15 1016.1 1014.9 0.0
14/01:00pm 28.7 26.4 11.7 35 9.9 SE 15 33 8 18 1016.3 1015.1 0.0
14/12:30pm 27.8 25.0 11.4 36 9.5 ESE 17 28 9 15 1016.5 1015.3 0.0
14/12:00pm 27.1 24.1 10.8 36 9.3 ESE 17 32 9 17 1016.9 1015.7 0.0
14/11:30am 26.8 23.9 10.9 37 9.1 ESE 17 28 9 15 1017.0 1015.8 0.0
14/11:00am 25.8 22.7 10.4 38 8.7 ESE 17 30 9 16 1017.2 1016.0 0.0
14/10:30am 25.0 21.5 10.1 39 8.3 ESE 19 30 10 16 1017.3 1016.2 0.0

Other Formats:

Comma delimited format used in spreadsheet applications
http://www.bom.gov.au/fwo/IDN60801/IDN60801.95710.axf

JavaScript Object Notation format (JSON) in row-major order
http://www.bom.gov.au/fwo/IDN60801/IDN60801.95710.json